sensor_id;sensor_type;location;lat;lon;timestamp;pressure;altitude;pressure_sealevel;temperature;humidity
48810;BME280;40070;47.322;18.784;2022-09-01T00:01:09;1003.10;;;21.28;66.52
48810;BME280;40070;47.322;18.784;2022-09-01T00:03:11;1003.11;;;21.20;65.44
48810;BME280;40070;47.322;18.784;2022-09-01T00:05:11;1003.10;;;21.38;65.44
48810;BME280;40070;47.322;18.784;2022-09-01T00:07:13;1003.11;;;21.19;65.89
48810;BME280;40070;47.322;18.784;2022-09-01T00:09:17;1003.06;;;21.21;66.56
48810;BME280;40070;47.322;18.784;2022-09-01T00:11:19;1003.12;;;21.03;66.81
48810;BME280;40070;47.322;18.784;2022-09-01T00:13:21;1003.12;;;21.02;67.33
48810;BME280;40070;47.322;18.784;2022-09-01T00:15:22;1003.06;;;21.10;66.79
48810;BME280;40070;47.322;18.784;2022-09-01T00:17:23;1003.11;;;21.13;66.89
48810;BME280;40070;47.322;18.784;2022-09-01T00:19:24;1003.13;;;20.93;67.31
48810;BME280;40070;47.322;18.784;2022-09-01T00:21:29;1003.09;;;20.91;67.25
48810;BME280;40070;47.322;18.784;2022-09-01T00:23:30;1003.02;;;20.94;66.99
48810;BME280;40070;47.322;18.784;2022-09-01T00:25:31;1002.98;;;20.89;66.98
48810;BME280;40070;47.322;18.784;2022-09-01T00:27:32;1002.97;;;21.01;66.24
48810;BME280;40070;47.322;18.784;2022-09-01T00:29:33;1002.96;;;20.93;66.04
48810;BME280;40070;47.322;18.784;2022-09-01T00:31:34;1002.96;;;20.63;67.39
48810;BME280;40070;47.322;18.784;2022-09-01T00:33:35;1002.99;;;20.43;67.82
48810;BME280;40070;47.322;18.784;2022-09-01T00:35:36;1003.03;;;20.41;66.96
48810;BME280;40070;47.322;18.784;2022-09-01T00:37:37;1003.07;;;20.44;67.04
48810;BME280;40070;47.322;18.784;2022-09-01T00:39:38;1003.08;;;20.30;67.39
48810;BME280;40070;47.322;18.784;2022-09-01T00:41:39;1003.06;;;20.03;67.96
48810;BME280;40070;47.322;18.784;2022-09-01T00:43:47;1003.06;;;20.32;66.62
48810;BME280;40070;47.322;18.784;2022-09-01T00:45:49;1003.05;;;20.12;67.82
48810;BME280;40070;47.322;18.784;2022-09-01T00:47:50;1003.05;;;20.27;66.93
48810;BME280;40070;47.322;18.784;2022-09-01T00:49:50;1003.08;;;20.23;66.93
48810;BME280;40070;47.322;18.784;2022-09-01T00:51:53;1003.06;;;20.37;65.57
48810;BME280;40070;47.322;18.784;2022-09-01T00:53:55;1003.04;;;20.46;65.33
48810;BME280;40070;47.322;18.784;2022-09-01T00:55:56;1003.02;;;20.44;65.28
48810;BME280;40070;47.322;18.784;2022-09-01T00:57:58;1003.03;;;20.39;65.76
48810;BME280;40070;47.322;18.784;2022-09-01T01:00:03;1003.01;;;20.21;66.59
48810;BME280;40070;47.322;18.784;2022-09-01T01:02:04;1002.98;;;20.19;66.11
48810;BME280;40070;47.322;18.784;2022-09-01T01:04:05;1003.01;;;20.22;66.63
48810;BME280;40070;47.322;18.784;2022-09-01T01:06:07;1002.96;;;19.89;68.09
48810;BME280;40070;47.322;18.784;2022-09-01T01:08:08;1002.98;;;20.09;67.28
48810;BME280;40070;47.322;18.784;2022-09-01T01:10:10;1002.93;;;19.83;67.38
48810;BME280;40070;47.322;18.784;2022-09-01T01:12:11;1002.94;;;19.67;68.34
48810;BME280;40070;47.322;18.784;2022-09-01T01:14:13;1002.96;;;19.53;69.37
48810;BME280;40070;47.322;18.784;2022-09-01T01:16:14;1002.96;;;19.44;68.81
48810;BME280;40070;47.322;18.784;2022-09-01T01:18:15;1003.00;;;19.36;69.34
48810;BME280;40070;47.322;18.784;2022-09-01T01:20:16;1002.98;;;19.56;68.99
48810;BME280;40070;47.322;18.784;2022-09-01T01:22:22;1002.98;;;19.25;68.99
48810;BME280;40070;47.322;18.784;2022-09-01T01:24:26;1003.00;;;19.06;70.24
48810;BME280;40070;47.322;18.784;2022-09-01T01:26:28;1002.99;;;19.00;70.29
48810;BME280;40070;47.322;18.784;2022-09-01T01:28:33;1003.01;;;18.82;70.57
48810;BME280;40070;47.322;18.784;2022-09-01T01:30:36;1003.00;;;18.87;70.91
48810;BME280;40070;47.322;18.784;2022-09-01T01:32:38;1003.01;;;18.96;71.18
48810;BME280;40070;47.322;18.784;2022-09-01T01:34:39;1003.04;;;18.99;70.85
48810;BME280;40070;47.322;18.784;2022-09-01T01:36:40;1002.97;;;18.94;70.71
48810;BME280;40070;47.322;18.784;2022-09-01T01:38:43;1002.98;;;18.93;70.71
48810;BME280;40070;47.322;18.784;2022-09-01T01:40:44;1002.94;;;19.03;69.94
48810;BME280;40070;47.322;18.784;2022-09-01T01:42:46;1002.95;;;19.09;70.82
48810;BME280;40070;47.322;18.784;2022-09-01T01:44:47;1002.97;;;18.83;71.20
48810;BME280;40070;47.322;18.784;2022-09-01T01:46:49;1002.95;;;18.80;71.91
48810;BME280;40070;47.322;18.784;2022-09-01T01:48:51;1002.91;;;18.76;71.42
48810;BME280;40070;47.322;18.784;2022-09-01T01:50:53;1002.84;;;18.87;70.85
48810;BME280;40070;47.322;18.784;2022-09-01T01:52:54;1002.92;;;18.87;70.29
48810;BME280;40070;47.322;18.784;2022-09-01T01:54:55;1002.92;;;18.86;70.94
48810;BME280;40070;47.322;18.784;2022-09-01T01:57:00;1003.00;;;18.70;71.44
48810;BME280;40070;47.322;18.784;2022-09-01T01:59:01;1002.98;;;18.71;71.24
48810;BME280;40070;47.322;18.784;2022-09-01T02:01:02;1002.99;;;18.61;71.70
48810;BME280;40070;47.322;18.784;2022-09-01T02:03:03;1002.96;;;18.51;71.51
48810;BME280;40070;47.322;18.784;2022-09-01T02:05:04;1002.98;;;18.72;70.70
48810;BME280;40070;47.322;18.784;2022-09-01T02:07:09;1002.91;;;18.52;71.10
48810;BME280;40070;47.322;18.784;2022-09-01T02:09:10;1002.95;;;18.78;70.91
48810;BME280;40070;47.322;18.784;2022-09-01T02:11:11;1002.98;;;18.51;72.03
48810;BME280;40070;47.322;18.784;2022-09-01T02:13:14;1002.99;;;18.67;71.64
48810;BME280;40070;47.322;18.784;2022-09-01T02:15:16;1002.99;;;18.59;71.36
48810;BME280;40070;47.322;18.784;2022-09-01T02:17:17;1002.98;;;18.64;71.46
48810;BME280;40070;47.322;18.784;2022-09-01T02:19:18;1002.91;;;18.78;70.86
48810;BME280;40070;47.322;18.784;2022-09-01T02:21:19;1002.89;;;18.88;70.34
48810;BME280;40070;47.322;18.784;2022-09-01T02:23:21;1002.85;;;18.83;70.62
48810;BME280;40070;47.322;18.784;2022-09-01T02:25:22;1002.86;;;18.89;69.23
48810;BME280;40070;47.322;18.784;2022-09-01T02:27:23;1002.86;;;19.05;68.62
48810;BME280;40070;47.322;18.784;2022-09-01T02:29:24;1002.94;;;18.88;69.19
48810;BME280;40070;47.322;18.784;2022-09-01T02:31:25;1002.96;;;19.03;69.44
48810;BME280;40070;47.322;18.784;2022-09-01T02:33:27;1003.01;;;19.13;68.63
48810;BME280;40070;47.322;18.784;2022-09-01T02:35:28;1003.05;;;19.17;68.50
48810;BME280;40070;47.322;18.784;2022-09-01T02:37:28;1003.11;;;19.00;69.89
48810;BME280;40070;47.322;18.784;2022-09-01T02:39:30;1003.11;;;19.01;70.29
48810;BME280;40070;47.322;18.784;2022-09-01T02:41:31;1003.09;;;18.91;69.99
48810;BME280;40070;47.322;18.784;2022-09-01T02:43:32;1003.06;;;18.90;69.79
48810;BME280;40070;47.322;18.784;2022-09-01T02:45:33;1002.99;;;18.70;71.12
48810;BME280;40070;47.322;18.784;2022-09-01T02:47:34;1002.95;;;18.90;70.39
48810;BME280;40070;47.322;18.784;2022-09-01T02:49:35;1002.92;;;18.90;70.58
48810;BME280;40070;47.322;18.784;2022-09-01T02:51:36;1002.92;;;19.24;69.01
48810;BME280;40070;47.322;18.784;2022-09-01T02:53:37;1002.90;;;19.18;68.48
48810;BME280;40070;47.322;18.784;2022-09-01T02:55:38;1002.95;;;19.27;68.70
48810;BME280;40070;47.322;18.784;2022-09-01T02:57:39;1002.94;;;19.25;68.19
48810;BME280;40070;47.322;18.784;2022-09-01T02:59:40;1002.97;;;19.26;68.36
48810;BME280;40070;47.322;18.784;2022-09-01T03:01:41;1003.05;;;19.40;67.92
48810;BME280;40070;47.322;18.784;2022-09-01T03:03:42;1003.05;;;19.44;67.52
48810;BME280;40070;47.322;18.784;2022-09-01T03:05:43;1003.11;;;19.46;67.28
48810;BME280;40070;47.322;18.784;2022-09-01T03:07:44;1003.09;;;19.33;67.97
48810;BME280;40070;47.322;18.784;2022-09-01T03:09:45;1003.02;;;19.38;67.82
48810;BME280;40070;47.322;18.784;2022-09-01T03:11:47;1003.00;;;19.49;67.58
48810;BME280;40070;47.322;18.784;2022-09-01T03:13:48;1003.02;;;19.43;66.97
48810;BME280;40070;47.322;18.784;2022-09-01T03:15:49;1002.97;;;19.49;67.02
48810;BME280;40070;47.322;18.784;2022-09-01T03:17:50;1002.97;;;19.66;66.61
48810;BME280;40070;47.322;18.784;2022-09-01T03:19:51;1002.99;;;19.71;66.66
48810;BME280;40070;47.322;18.784;2022-09-01T03:21:52;1002.96;;;19.75;66.68
48810;BME280;40070;47.322;18.784;2022-09-01T03:23:53;1002.87;;;19.70;67.58
48810;BME280;40070;47.322;18.784;2022-09-01T03:25:54;1002.81;;;19.71;68.33
48810;BME280;40070;47.322;18.784;2022-09-01T03:27:56;1002.85;;;19.39;68.45
48810;BME280;40070;47.322;18.784;2022-09-01T03:29:57;1002.79;;;18.97;70.58
48810;BME280;40070;47.322;18.784;2022-09-01T03:31:58;1002.76;;;18.92;70.01
48810;BME280;40070;47.322;18.784;2022-09-01T03:33:59;1002.70;;;18.91;69.67
48810;BME280;40070;47.322;18.784;2022-09-01T03:36:00;1002.71;;;18.79;70.37
48810;BME280;40070;47.322;18.784;2022-09-01T03:38:01;1002.66;;;18.65;69.90
48810;BME280;40070;47.322;18.784;2022-09-01T03:40:03;1002.68;;;18.54;70.15
48810;BME280;40070;47.322;18.784;2022-09-01T03:42:04;1002.70;;;18.70;70.32
48810;BME280;40070;47.322;18.784;2022-09-01T03:44:05;1002.73;;;18.64;70.57
48810;BME280;40070;47.322;18.784;2022-09-01T03:46:06;1002.70;;;18.61;71.19
48810;BME280;40070;47.322;18.784;2022-09-01T03:48:07;1002.68;;;18.43;71.64
48810;BME280;40070;47.322;18.784;2022-09-01T03:50:10;1002.68;;;18.27;71.74
48810;BME280;40070;47.322;18.784;2022-09-01T03:52:11;1002.64;;;18.22;71.71
48810;BME280;40070;47.322;18.784;2022-09-01T03:54:12;1002.64;;;18.24;71.38
48810;BME280;40070;47.322;18.784;2022-09-01T03:56:13;1002.64;;;18.30;71.29
48810;BME280;40070;47.322;18.784;2022-09-01T03:58:16;1002.69;;;18.15;72.10
48810;BME280;40070;47.322;18.784;2022-09-01T04:00:17;1002.66;;;18.21;72.02
48810;BME280;40070;47.322;18.784;2022-09-01T04:02:19;1002.73;;;18.43;70.91
48810;BME280;40070;47.322;18.784;2022-09-01T04:04:20;1002.70;;;18.19;70.47
48810;BME280;40070;47.322;18.784;2022-09-01T04:06:20;1002.74;;;17.93;71.01
48810;BME280;40070;47.322;18.784;2022-09-01T04:08:22;1002.78;;;17.91;72.06
48810;BME280;40070;47.322;18.784;2022-09-01T04:10:23;1002.79;;;18.21;70.71
48810;BME280;40070;47.322;18.784;2022-09-01T04:12:24;1002.76;;;18.12;70.47
48810;BME280;40070;47.322;18.784;2022-09-01T04:14:25;1002.78;;;17.95;71.31
48810;BME280;40070;47.322;18.784;2022-09-01T04:16:27;1002.80;;;18.05;71.27
48810;BME280;40070;47.322;18.784;2022-09-01T04:18:28;1002.77;;;18.07;71.45
48810;BME280;40070;47.322;18.784;2022-09-01T04:20:29;1002.82;;;18.06;71.99
48810;BME280;40070;47.322;18.784;2022-09-01T04:22:30;1002.84;;;18.19;71.48
48810;BME280;40070;47.322;18.784;2022-09-01T04:24:31;1002.85;;;17.98;72.31
48810;BME280;40070;47.322;18.784;2022-09-01T04:26:32;1002.90;;;17.94;72.22
48810;BME280;40070;47.322;18.784;2022-09-01T04:28:37;1002.88;;;17.96;72.02
48810;BME280;40070;47.322;18.784;2022-09-01T04:30:39;1002.87;;;17.91;71.90
48810;BME280;40070;47.322;18.784;2022-09-01T04:32:39;1002.80;;;18.19;71.50
48810;BME280;40070;47.322;18.784;2022-09-01T04:34:41;1002.80;;;18.28;72.26
48810;BME280;40070;47.322;18.784;2022-09-01T04:36:42;1002.80;;;18.30;71.22
48810;BME280;40070;47.322;18.784;2022-09-01T04:38:47;1002.82;;;18.05;71.67
48810;BME280;40070;47.322;18.784;2022-09-01T04:40:49;1002.85;;;18.32;71.29
48810;BME280;40070;47.322;18.784;2022-09-01T04:42:50;1002.89;;;18.64;70.46
48810;BME280;40070;47.322;18.784;2022-09-01T04:44:51;1002.91;;;18.91;69.69
48810;BME280;40070;47.322;18.784;2022-09-01T04:46:52;1002.89;;;18.90;69.29
48810;BME280;40070;47.322;18.784;2022-09-01T04:48:54;1002.83;;;19.06;68.55
48810;BME280;40070;47.322;18.784;2022-09-01T04:50:55;1002.85;;;19.01;68.60
48810;BME280;40070;47.322;18.784;2022-09-01T04:52:59;1002.89;;;19.14;68.14
48810;BME280;40070;47.322;18.784;2022-09-01T04:55:00;1003.00;;;19.20;67.83
48810;BME280;40070;47.322;18.784;2022-09-01T04:57:01;1002.95;;;19.11;68.02
48810;BME280;40070;47.322;18.784;2022-09-01T04:59:02;1002.99;;;18.76;69.51
48810;BME280;40070;47.322;18.784;2022-09-01T05:01:12;1003.01;;;18.58;69.89
48810;BME280;40070;47.322;18.784;2022-09-01T05:03:13;1003.00;;;18.35;70.58
48810;BME280;40070;47.322;18.784;2022-09-01T05:05:14;1002.99;;;18.18;71.46
48810;BME280;40070;47.322;18.784;2022-09-01T05:07:15;1003.01;;;18.28;70.63
48810;BME280;40070;47.322;18.784;2022-09-01T05:09:16;1003.08;;;18.33;70.81
48810;BME280;40070;47.322;18.784;2022-09-01T05:11:17;1003.05;;;18.61;70.06
48810;BME280;40070;47.322;18.784;2022-09-01T05:13:19;1003.06;;;18.42;69.77
48810;BME280;40070;47.322;18.784;2022-09-01T05:15:20;1003.06;;;18.64;69.51
48810;BME280;40070;47.322;18.784;2022-09-01T05:17:21;1003.02;;;18.68;69.01
48810;BME280;40070;47.322;18.784;2022-09-01T05:19:22;1003.00;;;18.53;69.75
48810;BME280;40070;47.322;18.784;2022-09-01T05:21:23;1002.97;;;18.74;69.62
48810;BME280;40070;47.322;18.784;2022-09-01T05:23:24;1003.03;;;18.42;70.39
48810;BME280;40070;47.322;18.784;2022-09-01T05:25:25;1003.06;;;18.49;69.56
48810;BME280;40070;47.322;18.784;2022-09-01T05:27:26;1003.05;;;18.56;69.36
48810;BME280;40070;47.322;18.784;2022-09-01T05:29:27;1003.05;;;18.43;69.82
48810;BME280;40070;47.322;18.784;2022-09-01T05:31:28;1003.00;;;18.60;69.38
48810;BME280;40070;47.322;18.784;2022-09-01T05:33:30;1003.01;;;18.76;69.02
48810;BME280;40070;47.322;18.784;2022-09-01T05:35:31;1003.00;;;18.52;69.48
48810;BME280;40070;47.322;18.784;2022-09-01T05:37:32;1003.00;;;18.58;69.77
48810;BME280;40070;47.322;18.784;2022-09-01T05:39:33;1002.95;;;18.36;70.66
48810;BME280;40070;47.322;18.784;2022-09-01T05:41:34;1002.98;;;18.53;70.25
48810;BME280;40070;47.322;18.784;2022-09-01T05:43:35;1003.00;;;18.58;70.13
48810;BME280;40070;47.322;18.784;2022-09-01T05:45:36;1002.99;;;18.59;69.75
48810;BME280;40070;47.322;18.784;2022-09-01T05:47:37;1002.97;;;18.61;70.05
48810;BME280;40070;47.322;18.784;2022-09-01T05:49:38;1002.98;;;18.76;69.82
48810;BME280;40070;47.322;18.784;2022-09-01T05:51:40;1002.93;;;18.73;70.27
48810;BME280;40070;47.322;18.784;2022-09-01T05:53:41;1002.95;;;18.59;70.20
48810;BME280;40070;47.322;18.784;2022-09-01T05:55:45;1002.96;;;18.51;70.51
48810;BME280;40070;47.322;18.784;2022-09-01T05:57:46;1002.98;;;18.43;71.16
48810;BME280;40070;47.322;18.784;2022-09-01T05:59:47;1003.01;;;18.77;70.79
48810;BME280;40070;47.322;18.784;2022-09-01T06:01:48;1003.05;;;18.60;71.14
48810;BME280;40070;47.322;18.784;2022-09-01T06:03:54;1003.08;;;18.70;70.72
48810;BME280;40070;47.322;18.784;2022-09-01T06:06:00;1003.07;;;18.58;71.21
48810;BME280;40070;47.322;18.784;2022-09-01T06:08:04;1003.03;;;18.57;71.26
48810;BME280;40070;47.322;18.784;2022-09-01T06:10:05;1003.02;;;18.67;71.00
48810;BME280;40070;47.322;18.784;2022-09-01T06:12:07;1002.97;;;18.87;70.37
48810;BME280;40070;47.322;18.784;2022-09-01T06:14:09;1002.99;;;18.88;70.24
48810;BME280;40070;47.322;18.784;2022-09-01T06:16:10;1003.03;;;19.02;68.91
48810;BME280;40070;47.322;18.784;2022-09-01T06:18:11;1003.03;;;18.80;69.53
48810;BME280;40070;47.322;18.784;2022-09-01T06:20:12;1003.08;;;18.38;71.55
48810;BME280;40070;47.322;18.784;2022-09-01T06:22:13;1003.13;;;18.36;72.07
48810;BME280;40070;47.322;18.784;2022-09-01T06:24:14;1003.15;;;18.39;72.27
48810;BME280;40070;47.322;18.784;2022-09-01T06:26:18;1003.17;;;18.04;72.83
48810;BME280;40070;47.322;18.784;2022-09-01T06:28:19;1003.18;;;18.28;71.39
48810;BME280;40070;47.322;18.784;2022-09-01T06:30:20;1003.17;;;18.30;71.32
48810;BME280;40070;47.322;18.784;2022-09-01T06:32:21;1003.20;;;18.40;70.98
48810;BME280;40070;47.322;18.784;2022-09-01T06:34:22;1003.20;;;18.54;70.71
48810;BME280;40070;47.322;18.784;2022-09-01T06:36:23;1003.29;;;18.68;70.41
48810;BME280;40070;47.322;18.784;2022-09-01T06:38:24;1003.26;;;18.71;70.67
48810;BME280;40070;47.322;18.784;2022-09-01T06:40:25;1003.27;;;18.50;71.25
48810;BME280;40070;47.322;18.784;2022-09-01T06:42:26;1003.27;;;18.62;70.74
48810;BME280;40070;47.322;18.784;2022-09-01T06:44:27;1003.27;;;18.54;71.74
48810;BME280;40070;47.322;18.784;2022-09-01T06:46:28;1003.30;;;18.62;70.92
48810;BME280;40070;47.322;18.784;2022-09-01T06:48:29;1003.31;;;18.56;70.66
48810;BME280;40070;47.322;18.784;2022-09-01T06:50:30;1003.34;;;18.51;71.00
48810;BME280;40070;47.322;18.784;2022-09-01T06:52:31;1003.35;;;18.67;70.43
48810;BME280;40070;47.322;18.784;2022-09-01T06:54:32;1003.43;;;18.86;69.87
48810;BME280;40070;47.322;18.784;2022-09-01T06:56:33;1003.43;;;18.74;70.41
48810;BME280;40070;47.322;18.784;2022-09-01T06:58:34;1003.43;;;18.60;71.00
48810;BME280;40070;47.322;18.784;2022-09-01T07:00:35;1003.41;;;18.61;70.82
48810;BME280;40070;47.322;18.784;2022-09-01T07:02:37;1003.42;;;18.59;71.07
48810;BME280;40070;47.322;18.784;2022-09-01T07:04:38;1003.47;;;18.79;69.33
48810;BME280;40070;47.322;18.784;2022-09-01T07:06:40;1003.48;;;18.74;69.54
48810;BME280;40070;47.322;18.784;2022-09-01T07:08:41;1003.52;;;18.45;71.20
48810;BME280;40070;47.322;18.784;2022-09-01T07:10:43;1003.56;;;18.39;71.06
48810;BME280;40070;47.322;18.784;2022-09-01T07:12:45;1003.58;;;18.46;71.02
48810;BME280;40070;47.322;18.784;2022-09-01T07:14:45;1003.59;;;18.41;70.73
48810;BME280;40070;47.322;18.784;2022-09-01T07:16:46;1003.60;;;18.48;70.09
48810;BME280;40070;47.322;18.784;2022-09-01T07:18:48;1003.57;;;18.45;70.66
48810;BME280;40070;47.322;18.784;2022-09-01T07:20:48;1003.59;;;18.47;69.69
48810;BME280;40070;47.322;18.784;2022-09-01T07:22:50;1003.61;;;18.64;69.64
48810;BME280;40070;47.322;18.784;2022-09-01T07:24:52;1003.59;;;18.85;69.00
48810;BME280;40070;47.322;18.784;2022-09-01T07:26:52;1003.60;;;18.79;69.26
48810;BME280;40070;47.322;18.784;2022-09-01T07:28:54;1003.57;;;18.91;69.76
48810;BME280;40070;47.322;18.784;2022-09-01T07:30:55;1003.58;;;18.81;69.92
48810;BME280;40070;47.322;18.784;2022-09-01T07:32:56;1003.52;;;18.81;69.86
48810;BME280;40070;47.322;18.784;2022-09-01T07:34:57;1003.51;;;18.70;69.54
48810;BME280;40070;47.322;18.784;2022-09-01T07:36:58;1003.56;;;18.83;69.47
48810;BME280;40070;47.322;18.784;2022-09-01T07:38:59;1003.52;;;18.80;70.18
48810;BME280;40070;47.322;18.784;2022-09-01T07:41:00;1003.47;;;18.94;70.01
48810;BME280;40070;47.322;18.784;2022-09-01T07:43:01;1003.47;;;19.11;69.22
48810;BME280;40070;47.322;18.784;2022-09-01T07:45:01;1003.48;;;19.12;69.85
48810;BME280;40070;47.322;18.784;2022-09-01T07:47:02;1003.48;;;19.01;67.33
48810;BME280;40070;47.322;18.784;2022-09-01T07:49:04;1003.48;;;19.15;67.61
48810;BME280;40070;47.322;18.784;2022-09-01T07:51:05;1003.47;;;19.26;67.30
48810;BME280;40070;47.322;18.784;2022-09-01T07:53:07;1003.50;;;19.22;67.43
48810;BME280;40070;47.322;18.784;2022-09-01T07:55:08;1003.52;;;19.15;67.89
48810;BME280;40070;47.322;18.784;2022-09-01T07:57:10;1003.56;;;19.11;67.97
48810;BME280;40070;47.322;18.784;2022-09-01T07:59:11;1003.54;;;18.99;69.19
48810;BME280;40070;47.322;18.784;2022-09-01T08:01:16;1003.54;;;18.89;68.87
48810;BME280;40070;47.322;18.784;2022-09-01T08:03:17;1003.57;;;18.87;69.70
48810;BME280;40070;47.322;18.784;2022-09-01T08:05:19;1003.58;;;18.86;69.45
48810;BME280;40070;47.322;18.784;2022-09-01T08:07:20;1003.54;;;19.03;69.77
48810;BME280;40070;47.322;18.784;2022-09-01T08:09:20;1003.58;;;19.14;69.84
48810;BME280;40070;47.322;18.784;2022-09-01T08:11:23;1003.54;;;19.22;69.25
48810;BME280;40070;47.322;18.784;2022-09-01T08:13:24;1003.56;;;19.12;69.04
48810;BME280;40070;47.322;18.784;2022-09-01T08:15:25;1003.58;;;19.14;67.77
48810;BME280;40070;47.322;18.784;2022-09-01T08:17:26;1003.66;;;19.37;67.90
48810;BME280;40070;47.322;18.784;2022-09-01T08:19:27;1003.66;;;19.40;68.00
48810;BME280;40070;47.322;18.784;2022-09-01T08:21:28;1003.68;;;19.50;68.82
48810;BME280;40070;47.322;18.784;2022-09-01T08:23:29;1003.69;;;19.46;66.68
48810;BME280;40070;47.322;18.784;2022-09-01T08:25:30;1003.67;;;19.02;67.01
48810;BME280;40070;47.322;18.784;2022-09-01T08:27:32;1003.74;;;19.34;65.97
48810;BME280;40070;47.322;18.784;2022-09-01T08:29:33;1003.70;;;19.46;66.55
48810;BME280;40070;47.322;18.784;2022-09-01T08:31:34;1003.72;;;19.61;67.66
48810;BME280;40070;47.322;18.784;2022-09-01T08:33:36;1003.77;;;19.44;67.13
48810;BME280;40070;47.322;18.784;2022-09-01T08:35:38;1003.79;;;19.26;65.75
48810;BME280;40070;47.322;18.784;2022-09-01T08:37:39;1003.81;;;19.15;68.23
48810;BME280;40070;47.322;18.784;2022-09-01T08:39:40;1003.80;;;19.41;67.25
48810;BME280;40070;47.322;18.784;2022-09-01T08:41:51;1003.80;;;19.58;67.27
48810;BME280;40070;47.322;18.784;2022-09-01T08:44:15;1003.82;;;19.52;67.48
48810;BME280;40070;47.322;18.784;2022-09-01T08:46:27;1003.84;;;19.63;67.85
48810;BME280;40070;47.322;18.784;2022-09-01T08:48:43;1003.81;;;19.55;66.00
48810;BME280;40070;47.322;18.784;2022-09-01T08:50:48;1003.78;;;19.87;65.61
48810;BME280;40070;47.322;18.784;2022-09-01T08:52:57;1003.77;;;19.90;66.48
48810;BME280;40070;47.322;18.784;2022-09-01T08:55:05;1003.74;;;19.61;66.46
48810;BME280;40070;47.322;18.784;2022-09-01T08:57:10;1003.73;;;19.77;66.37
48810;BME280;40070;47.322;18.784;2022-09-01T08:59:13;1003.79;;;19.97;66.38
48810;BME280;40070;47.322;18.784;2022-09-01T09:01:21;1003.82;;;20.01;66.61
48810;BME280;40070;47.322;18.784;2022-09-01T09:08:16;1003.73;;;20.22;65.69
48810;BME280;40070;47.322;18.784;2022-09-01T09:10:23;1003.71;;;19.94;66.69
48810;BME280;40070;47.322;18.784;2022-09-01T09:12:28;1003.62;;;20.05;66.16
48810;BME280;40070;47.322;18.784;2022-09-01T09:14:39;1003.62;;;19.93;65.13
48810;BME280;40070;47.322;18.784;2022-09-01T09:16:45;1003.56;;;20.17;66.13
48810;BME280;40070;47.322;18.784;2022-09-01T09:18:50;1003.55;;;20.34;66.72
48810;BME280;40070;47.322;18.784;2022-09-01T09:20:52;1003.56;;;20.43;65.90
48810;BME280;40070;47.322;18.784;2022-09-01T09:22:53;1003.55;;;20.51;65.75
48810;BME280;40070;47.322;18.784;2022-09-01T09:25:08;1003.56;;;20.57;66.06
48810;BME280;40070;47.322;18.784;2022-09-01T09:27:10;1003.55;;;20.70;65.36
48810;BME280;40070;47.322;18.784;2022-09-01T09:29:16;1003.50;;;20.53;62.79
48810;BME280;40070;47.322;18.784;2022-09-01T09:31:24;1003.51;;;20.64;62.41
48810;BME280;40070;47.322;18.784;2022-09-01T09:33:43;1003.48;;;20.79;63.48
48810;BME280;40070;47.322;18.784;2022-09-01T09:35:42;1003.52;;;20.81;64.82
48810;BME280;40070;47.322;18.784;2022-09-01T09:37:43;1003.49;;;20.48;59.63
48810;BME280;40070;47.322;18.784;2022-09-01T09:39:44;1003.54;;;20.71;61.81
48810;BME280;40070;47.322;18.784;2022-09-01T09:42:00;1003.51;;;20.62;60.36
48810;BME280;40070;47.322;18.784;2022-09-01T09:44:05;1003.56;;;20.49;61.58
48810;BME280;40070;47.322;18.784;2022-09-01T09:46:54;1003.51;;;20.45;59.73
48810;BME280;40070;47.322;18.784;2022-09-01T09:48:31;1003.46;;;20.62;59.50
48810;BME280;40070;47.322;18.784;2022-09-01T09:50:36;1003.47;;;20.96;57.36
48810;BME280;40070;47.322;18.784;2022-09-01T09:52:38;1003.44;;;20.98;59.70
48810;BME280;40070;47.322;18.784;2022-09-01T09:55:02;1003.44;;;20.76;60.93
48810;BME280;40070;47.322;18.784;2022-09-01T09:57:12;1003.45;;;20.61;63.61
48810;BME280;40070;47.322;18.784;2022-09-01T09:59:20;1003.43;;;21.11;61.22
48810;BME280;40070;47.322;18.784;2022-09-01T10:03:39;1003.45;;;20.83;60.00
48810;BME280;40070;47.322;18.784;2022-09-01T10:05:44;1003.43;;;21.03;61.22
48810;BME280;40070;47.322;18.784;2022-09-01T10:07:45;1003.42;;;20.88;61.32
48810;BME280;40070;47.322;18.784;2022-09-01T10:09:46;1003.41;;;20.82;59.71
48810;BME280;40070;47.322;18.784;2022-09-01T10:11:51;1003.44;;;21.02;60.88
48810;BME280;40070;47.322;18.784;2022-09-01T10:13:52;1003.45;;;20.89;60.40
48810;BME280;40070;47.322;18.784;2022-09-01T10:15:54;1003.47;;;20.95;59.25
48810;BME280;40070;47.322;18.784;2022-09-01T10:17:57;1003.39;;;21.38;61.04
48810;BME280;40070;47.322;18.784;2022-09-01T10:20:02;1003.38;;;21.69;61.63
48810;BME280;40070;47.322;18.784;2022-09-01T10:22:03;1003.40;;;21.27;61.17
48810;BME280;40070;47.322;18.784;2022-09-01T10:24:14;1003.31;;;21.46;62.17
48810;BME280;40070;47.322;18.784;2022-09-01T10:26:24;1003.29;;;21.38;60.86
48810;BME280;40070;47.322;18.784;2022-09-01T10:28:27;1003.25;;;21.68;59.06
48810;BME280;40070;47.322;18.784;2022-09-01T10:30:29;1003.16;;;21.67;56.71
48810;BME280;40070;47.322;18.784;2022-09-01T10:32:37;1003.11;;;21.87;59.37
48810;BME280;40070;47.322;18.784;2022-09-01T10:34:39;1003.14;;;21.99;53.86
48810;BME280;40070;47.322;18.784;2022-09-01T10:36:41;1003.16;;;22.22;55.23
48810;BME280;40070;47.322;18.784;2022-09-01T10:38:43;1003.12;;;22.51;56.84
48810;BME280;40070;47.322;18.784;2022-09-01T10:40:44;1003.11;;;22.48;52.70
48810;BME280;40070;47.322;18.784;2022-09-01T10:42:47;1003.05;;;22.87;48.29
48810;BME280;40070;47.322;18.784;2022-09-01T10:44:57;1003.12;;;22.96;50.29
48810;BME280;40070;47.322;18.784;2022-09-01T10:47:03;1003.08;;;23.19;51.68
48810;BME280;40070;47.322;18.784;2022-09-01T10:51:40;1003.08;;;23.11;51.03
48810;BME280;40070;47.322;18.784;2022-09-01T10:53:51;1003.05;;;22.64;53.88
48810;BME280;40070;47.322;18.784;2022-09-01T10:55:59;1003.06;;;22.46;52.82
48810;BME280;40070;47.322;18.784;2022-09-01T11:02:40;1003.01;;;23.77;50.90